Erie, PA

2:48 PM EDT on May 06, 2015 (GMT -0400)
Ashtabula County | | Change Station
CLOSE
Current Station
Airport
Location: Ashtabula,
Elevation: 922 ft
Nearby Weather Stations

Elev 922 ft 41.78 °N, 80.70 °W | Updated 55 minutes ago

Partly Cloudy
Partly Cloudy
69 °F
Feels Like 69 °F
N
0
Wind Variable Wind from North

Today
High -- | Low -- °F
--% Chance of Precip.
Yesterday
High -- | Low -- °F
Precip. -- in
6:09 AM 8:24 PM
Waning Gibbous, 93% visible
Pressure 30.22 in
Visibility 10.0 miles
Clouds Few 1500 ft
Dew Point 61 °F
Humidity 75%
Rainfall 0.00 in
Snow Depth Not available.
UV 10 out of 12
Pollen 5.60 out of 12
Air Quality Not available.
Flu Activity Sporadic
METAR KHZY 061753Z AUTO 00000KT 10SM FEW015 21/16 A3022 RMK AO2 SLP232 60000 T02060161 10206 20133 58007 $

More Conditions Fewer Conditions

Pressure 30.22 in
Visibility 10.0 miles
Clouds Few 1500 ft
Dew Point 61 °F
Humidity 75%
Rainfall 0.00 in
Snow Depth Not available.
UV 10 out of 12
Pollen 5.60 out of 12
Air Quality Not available.
Flu Activity Sporadic
METAR KHZY 061753Z AUTO 00000KT 10SM FEW015 21/16 A3022 RMK AO2 SLP232 60000 T02060161 10206 20133 58007 $

More Conditions Fewer Conditions

10-Day Weather Forecast

Almanac

Astronomy

May. 06, 2015 Rise Set
Actual Time
Civil Twilight
Nautical Twilight
Astronomical Twilight
Moon
Length of Visible Light
Length of Day
Tomorrow will be .
, % of the Moon is Illuminated

Today's Extremes

State Highs State Lows

Community

WunderPhotos

Upload Photos

1,818,990 photos uploaded!

WunderBlogs® & News

Nearby

Air Quality

  Air Quality AQ Index Pollutant
Not available.

Snow Depth

Station Depth Elevation

Earthquake Activity

City Distance Mag. Time & Date
Minimum magnitude displayed is 2.5.

Coastal Water Temperatures

Place Temperature

Stations

Nearby Weather Stations

Station Location Temp. Windchill Dew Point Humidity Wind Precip. Elev Updated Type